| time (UTC) | temp F | wind direction | speed MPH | gust MPH | rain 1hr in | rain 24hr in | rain mn in | humidity % | barometer mb |
| 20260510204848 | 62 | 249 | 0.0 | 0.0 | 0.00 | 0.26 | 0.26 | 93 | 1011.2 |
| 20260510204348 | 62 | 359 | 0.0 | 0.0 | 0.00 | 0.26 | 0.26 | 93 | 1011.2 |
| 20260510203847 | 62 | 251 | 0.0 | 0.0 | 0.00 | 0.26 | 0.26 | 93 | 1011.3 |
| 20260510203347 | 62 | 359 | 0.0 | 0.0 | 0.00 | 0.26 | 0.26 | 93 | 1011.3 |
| 20260510202847 | 62 | 359 | 0.0 | 0.0 | 0.00 | 0.26 | 0.26 | 93 | 1011.4 |
| 20260510202346 | 62 | 359 | 0.0 | 0.0 | 0.00 | 0.26 | 0.26 | 93 | 1011.4 |
| 20260510201846 | 62 | 249 | 0.0 | 0.0 | 0.00 | 0.26 | 0.26 | 93 | 1011.4 |
| 20260510201346 | 62 | 249 | 0.0 | 0.0 | 0.00 | 0.26 | 0.26 | 93 | 1011.4 |
| 20260510200846 | 62 | 359 | 0.0 | 0.0 | 0.00 | 0.26 | 0.26 | 93 | 1011.5 |
| 20260510200345 | 62 | 249 | 0.0 | 0.0 | 0.00 | 0.26 | 0.26 | 93 | 1011.5 |
| 20260510195845 | 62 | 249 | 0.0 | 0.0 | 0.00 | 0.26 | 0.26 | 93 | 1011.5 |
| 20260510195345 | 62 | 250 | 0.0 | 0.0 | 0.00 | 0.26 | 0.26 | 93 | 1011.6 |
| 20260510194844 | 62 | 359 | 0.0 | 0.0 | 0.00 | 0.26 | 0.26 | 93 | 1011.6 |
| 20260510194344 | 62 | 359 | 0.0 | 0.0 | 0.00 | 0.26 | 0.26 | 93 | 1011.5 |
| 20260510193844 | 62 | 359 | 0.0 | 0.0 | 0.00 | 0.26 | 0.26 | 93 | 1011.5 |
| 20260510193344 | 62 | 248 | 0.0 | 0.0 | 0.00 | 0.26 | 0.26 | 93 | 1011.5 |
| 20260510192843 | 62 | 248 | 0.0 | 0.0 | 0.00 | 0.26 | 0.26 | 93 | 1011.5 |
| 20260510192343 | 62 | 248 | 0.0 | 0.0 | 0.00 | 0.26 | 0.26 | 92 | 1011.4 |
| 20260510191843 | 62 | 248 | 0.0 | 0.0 | 0.00 | 0.26 | 0.26 | 92 | 1011.3 |
| 20260510191342 | 62 | 249 | 0.0 | 0.0 | 0.00 | 0.26 | 0.26 | 92 | 1011.2 |
| 20260510190842 | 62 | 250 | 0.0 | 0.0 | 0.01 | 0.26 | 0.26 | 92 | 1011.2 |
| 20260510190342 | 62 | 249 | 0.0 | 0.0 | 0.01 | 0.26 | 0.26 | 92 | 1011.1 |
| 20260510185842 | 63 | 246 | 0.0 | 0.0 | 0.01 | 0.26 | 0.26 | 92 | 1011.1 |
| 20260510185341 | 63 | 359 | 0.0 | 0.0 | 0.01 | 0.26 | 0.26 | 92 | 1011.0 |
| 20260510184841 | 63 | 234 | 0.0 | 0.0 | 0.01 | 0.26 | 0.26 | 92 | 1011.0 |
| 20260510184341 | 63 | 359 | 0.0 | 0.0 | 0.01 | 0.26 | 0.26 | 92 | 1010.9 |
| 20260510183840 | 63 | 232 | 0.0 | 0.0 | 0.01 | 0.26 | 0.26 | 92 | 1010.9 |
| 20260510183340 | 63 | 231 | 0.0 | 0.0 | 0.01 | 0.26 | 0.26 | 92 | 1010.8 |
| 20260510182840 | 63 | 65 | 0.0 | 0.0 | 0.01 | 0.26 | 0.26 | 92 | 1010.8 |
| 20260510182340 | 63 | 64 | 0.0 | 0.0 | 0.01 | 0.26 | 0.26 | 92 | 1010.8 |
| 20260510181839 | 63 | 66 | 0.0 | 0.0 | 0.01 | 0.26 | 0.26 | 92 | 1010.8 |
| 20260510181339 | 63 | 65 | 0.0 | 0.0 | 0.01 | 0.26 | 0.26 | 92 | 1010.8 |
| 20260510180839 | 63 | 66 | 0.0 | 0.0 | 0.00 | 0.25 | 0.25 | 92 | 1010.7 |
| 20260510180338 | 63 | 66 | 0.0 | 0.0 | 0.00 | 0.25 | 0.25 | 92 | 1010.7 |
| 20260510175838 | 63 | 65 | 0.0 | 0.0 | 0.00 | 0.25 | 0.25 | 92 | 1010.7 |
| 20260510175338 | 63 | 65 | 0.0 | 0.0 | 0.00 | 0.25 | 0.25 | 92 | 1010.8 |
| 20260510174838 | 63 | 65 | 0.0 | 0.0 | 0.00 | 0.25 | 0.25 | 92 | 1010.8 |
| 20260510174337 | 63 | 66 | 0.0 | 0.0 | 0.00 | 0.25 | 0.25 | 91 | 1010.8 |
| 20260510173837 | 63 | 66 | 0.0 | 0.0 | 0.00 | 0.25 | 0.25 | 91 | 1010.8 |
| 20260510173337 | 63 | 65 | 0.0 | 0.0 | 0.00 | 0.25 | 0.25 | 91 | 1010.8 |
| 20260510172836 | 63 | 64 | 0.0 | 0.0 | 0.00 | 0.25 | 0.25 | 91 | 1010.7 |
| 20260510172336 | 63 | 66 | 0.0 | 0.0 | 0.00 | 0.25 | 0.25 | 91 | 1010.8 |
| 20260510171836 | 63 | 65 | 0.0 | 0.0 | 0.00 | 0.25 | 0.25 | 91 | 1010.8 |
| 20260510171336 | 63 | 66 | 0.0 | 0.0 | 0.00 | 0.25 | 0.25 | 91 | 1010.9 |
| 20260510170835 | 63 | 65 | 0.0 | 0.0 | 0.00 | 0.25 | 0.25 | 91 | 1010.9 |
| 20260510170335 | 63 | 65 | 0.0 | 0.0 | 0.00 | 0.25 | 0.25 | 91 | 1010.9 |
| 20260510165835 | 63 | 65 | 0.0 | 0.0 | 0.00 | 0.25 | 0.25 | 91 | 1010.9 |
| 20260510165334 | 63 | 64 | 0.0 | 0.0 | 0.00 | 0.25 | 0.25 | 91 | 1010.9 |
| 20260510164834 | 63 | 65 | 0.0 | 0.0 | 0.00 | 0.25 | 0.25 | 91 | 1010.9 |
| 20260510164334 | 63 | 65 | 0.0 | 0.0 | 0.00 | 0.25 | 0.25 | 91 | 1010.9 |
| 20260510163834 | 64 | 64 | 0.0 | 0.0 | 0.00 | 0.25 | 0.25 | 91 | 1011.0 |
| 20260510163333 | 64 | 66 | 0.0 | 0.0 | 0.00 | 0.25 | 0.25 | 90 | 1010.9 |
| 20260510162833 | 64 | 64 | 0.0 | 0.0 | 0.00 | 0.25 | 0.25 | 90 | 1011.0 |
| 20260510162333 | 64 | 66 | 0.0 | 0.0 | 0.00 | 0.25 | 0.25 | 91 | 1011.0 |
| 20260510161832 | 63 | 64 | 0.0 | 0.0 | 0.00 | 0.25 | 0.25 | 90 | 1011.0 |
| 20260510161332 | 63 | 65 | 0.0 | 0.0 | 0.00 | 0.25 | 0.25 | 90 | 1011.0 |
| 20260510160832 | 63 | 65 | 0.0 | 0.0 | 0.00 | 0.25 | 0.25 | 90 | 1011.0 |
| 20260510160331 | 63 | 65 | 0.0 | 0.0 | 0.00 | 0.25 | 0.25 | 90 | 1011.0 |
| 20260510155831 | 63 | 65 | 0.0 | 0.0 | 0.00 | 0.25 | 0.25 | 90 | 1011.0 |
| 20260510155331 | 63 | 64 | 0.0 | 0.0 | 0.00 | 0.25 | 0.25 | 90 | 1011.1 |
| 20260510154831 | 63 | 65 | 0.0 | 0.0 | 0.03 | 0.25 | 0.25 | 90 | 1011.1 |
| 20260510154330 | 63 | 65 | 0.0 | 0.0 | 0.10 | 0.25 | 0.25 | 90 | 1011.1 |
| 20260510153830 | 64 | 177 | 0.0 | 0.0 | 0.19 | 0.25 | 0.25 | 90 | 1011.1 |
| 20260510153330 | 64 | 181 | 0.0 | 0.0 | 0.20 | 0.25 | 0.25 | 90 | 1011.1 |
| 20260510152829 | 64 | 184 | 0.0 | 0.0 | 0.20 | 0.25 | 0.25 | 90 | 1011.2 |
| 20260510152329 | 64 | 185 | 0.0 | 0.0 | 0.20 | 0.25 | 0.25 | 90 | 1011.1 |
| 20260510151829 | 64 | 202 | 0.0 | 0.0 | 0.20 | 0.25 | 0.25 | 90 | 1011.1 |
| 20260510151329 | 64 | 359 | 0.0 | 0.0 | 0.20 | 0.25 | 0.25 | 89 | 1011.1 |
| 20260510150828 | 64 | 201 | 0.0 | 0.0 | 0.20 | 0.25 | 0.25 | 89 | 1011.2 |
| 20260510150328 | 64 | 203 | 0.0 | 0.0 | 0.20 | 0.25 | 0.25 | 88 | 1011.2 |
| 20260510145828 | 64 | 203 | 0.0 | 0.0 | 0.20 | 0.25 | 0.25 | 87 | 1011.2 |
| 20260510145327 | 64 | 204 | 0.0 | 0.0 | 0.20 | 0.25 | 0.25 | 85 | 1011.2 |
| 20260510144827 | 65 | 164 | 0.0 | 0.0 | 0.17 | 0.22 | 0.22 | 83 | 1011.3 |
| 20260510144327 | 66 | 176 | 0.0 | 0.0 | 0.10 | 0.15 | 0.15 | 80 | 1011.3 |
| 20260510143827 | 67 | 162 | 0.0 | 0.0 | 0.01 | 0.06 | 0.06 | 75 | 1011.3 |
| 20260510143326 | 68 | 157 | 0.0 | 0.0 | 0.00 | 0.05 | 0.05 | 73 | 1011.3 |
| 20260510142826 | 68 | 160 | 0.0 | 0.0 | 0.00 | 0.05 | 0.05 | 72 | 1011.2 |
| 20260510142326 | 68 | 159 | 0.0 | 0.0 | 0.00 | 0.05 | 0.05 | 72 | 1011.1 |
| 20260510141825 | 68 | 144 | 0.0 | 0.0 | 0.00 | 0.05 | 0.05 | 71 | 1011.1 |
| 20260510141325 | 69 | 86 | 0.0 | 0.0 | 0.00 | 0.05 | 0.05 | 71 | 1011.2 |
| 20260510140825 | 69 | 168 | 0.0 | 0.0 | 0.00 | 0.05 | 0.05 | 71 | 1011.1 |
| 20260510140325 | 69 | 160 | 0.0 | 0.0 | 0.00 | 0.05 | 0.05 | 72 | 1011.2 |
| 20260510135824 | 68 | 160 | 0.0 | 0.0 | 0.00 | 0.05 | 0.05 | 73 | 1011.2 |
| 20260510135324 | 68 | 112 | 0.0 | 0.0 | 0.00 | 0.05 | 0.05 | 73 | 1011.3 |
| 20260510134824 | 68 | 119 | 0.0 | 0.0 | 0.00 | 0.05 | 0.05 | 73 | 1011.4 |
| 20260510134323 | 67 | 101 | 0.0 | 0.0 | 0.00 | 0.05 | 0.05 | 75 | 1011.4 |
| 20260510133823 | 67 | 167 | 0.0 | 0.0 | 0.00 | 0.05 | 0.05 | 76 | 1011.5 |
| 20260510133323 | 66 | 167 | 0.0 | 0.0 | 0.00 | 0.05 | 0.05 | 76 | 1011.5 |
| 20260510132823 | 66 | 167 | 0.0 | 0.0 | 0.01 | 0.05 | 0.05 | 76 | 1011.5 |
| 20260510132322 | 67 | 168 | 0.0 | 0.0 | 0.01 | 0.05 | 0.05 | 76 | 1011.5 |
| 20260510131822 | 67 | 172 | 0.0 | 0.0 | 0.01 | 0.05 | 0.05 | 75 | 1011.6 |
| 20260510131322 | 66 | 175 | 0.0 | 0.0 | 0.01 | 0.05 | 0.05 | 75 | 1011.6 |
| 20260510130821 | 66 | 179 | 0.0 | 0.0 | 0.01 | 0.05 | 0.05 | 75 | 1011.6 |
| 20260510130321 | 66 | 174 | 0.0 | 0.0 | 0.01 | 0.05 | 0.05 | 76 | 1011.6 |
| 20260510125821 | 66 | 132 | 0.0 | 0.0 | 0.01 | 0.05 | 0.05 | 78 | 1011.6 |
| 20260510125321 | 66 | 186 | 0.0 | 0.0 | 0.01 | 0.05 | 0.05 | 79 | 1011.7 |
| 20260510124820 | 66 | 170 | 0.0 | 0.0 | 0.01 | 0.05 | 0.05 | 79 | 1011.8 |
| 20260510124320 | 66 | 187 | 0.0 | 0.0 | 0.01 | 0.05 | 0.05 | 80 | 1011.8 |
| 20260510123820 | 66 | 178 | 0.0 | 0.0 | 0.01 | 0.05 | 0.05 | 79 | 1012.0 |
| 20260510123319 | 66 | 180 | 0.0 | 0.0 | 0.01 | 0.05 | 0.05 | 78 | 1012.1 |
| 20260510122819 | 66 | 169 | 0.0 | 0.0 | 0.00 | 0.04 | 0.04 | 78 | 1012.1 |
| 20260510122319 | 66 | 168 | 0.0 | 0.0 | 0.00 | 0.04 | 0.04 | 78 | 1012.1 |
| 20260510121819 | 66 | 168 | 0.0 | 0.0 | 0.00 | 0.04 | 0.04 | 76 | 1012.2 |
| 20260510121318 | 67 | 172 | 0.0 | 0.0 | 0.00 | 0.04 | 0.04 | 76 | 1012.2 |
| 20260510120818 | 67 | 162 | 0.0 | 0.0 | 0.00 | 0.04 | 0.04 | 74 | 1012.3 |
| 20260510120318 | 67 | 174 | 0.0 | 0.0 | 0.00 | 0.04 | 0.04 | 74 | 1012.2 |
| 20260510115817 | 68 | 181 | 0.0 | 0.0 | 0.00 | 0.04 | 0.04 | 73 | 1012.2 |
| 20260510115317 | 67 | 187 | 0.0 | 0.0 | 0.00 | 0.04 | 0.04 | 73 | 1012.2 |
| 20260510114817 | 68 | 187 | 0.0 | 0.0 | 0.00 | 0.04 | 0.04 | 73 | 1012.3 |
| 20260510114317 | 68 | 189 | 0.0 | 0.0 | 0.00 | 0.04 | 0.04 | 74 | 1012.3 |
| 20260510113816 | 68 | 188 | 0.0 | 0.0 | 0.00 | 0.04 | 0.04 | 75 | 1012.3 |
| 20260510113316 | 68 | 118 | 0.0 | 0.0 | 0.00 | 0.04 | 0.04 | 75 | 1012.3 |
| 20260510112816 | 68 | 118 | 0.0 | 0.0 | 0.00 | 0.04 | 0.04 | 75 | 1012.3 |
| 20260510112315 | 68 | 118 | 0.0 | 0.0 | 0.00 | 0.04 | 0.04 | 75 | 1012.2 |
| 20260510111815 | 68 | 118 | 0.0 | 0.0 | 0.00 | 0.04 | 0.04 | 76 | 1012.3 |
| 20260510111315 | 67 | 114 | 0.0 | 0.0 | 0.00 | 0.04 | 0.04 | 77 | 1012.3 |
| 20260510110815 | 67 | 114 | 0.0 | 0.0 | 0.00 | 0.04 | 0.04 | 76 | 1012.3 |
| 20260510110314 | 67 | 114 | 0.0 | 0.0 | 0.00 | 0.04 | 0.04 | 77 | 1012.3 |
| 20260510105814 | 67 | 113 | 0.0 | 0.0 | 0.00 | 0.04 | 0.04 | 78 | 1012.3 |
| 20260510105314 | 67 | 90 | 0.0 | 0.0 | 0.00 | 0.04 | 0.04 | 78 | 1012.2 |
| 20260510104813 | 67 | 90 | 0.0 | 0.0 | 0.00 | 0.04 | 0.04 | 78 | 1012.2 |
| 20260510104313 | 67 | 90 | 0.0 | 0.0 | 0.00 | 0.04 | 0.04 | 79 | 1012.3 |
| 20260510103813 | 66 | 90 | 0.0 | 0.0 | 0.00 | 0.04 | 0.04 | 78 | 1012.4 |
| 20260510103313 | 66 | 91 | 0.0 | 0.0 | 0.00 | 0.04 | 0.04 | 78 | 1012.4 |
| 20260510102812 | 66 | 91 | 0.0 | 0.0 | 0.00 | 0.04 | 0.04 | 79 | 1012.5 |
| 20260510102312 | 66 | 91 | 0.0 | 0.0 | 0.00 | 0.04 | 0.04 | 79 | 1012.4 |
| 20260510101812 | 66 | 91 | 0.0 | 0.0 | 0.00 | 0.04 | 0.04 | 79 | 1012.4 |
| 20260510101311 | 66 | 90 | 0.0 | 0.0 | 0.00 | 0.04 | 0.04 | 79 | 1012.5 |
| 20260510100811 | 66 | 90 | 0.0 | 0.0 | 0.00 | 0.04 | 0.04 | 79 | 1012.5 |
| 20260510100311 | 66 | 90 | 0.0 | 0.0 | 0.00 | 0.04 | 0.04 | 78 | 1012.6 |
| 20260510095810 | 66 | 90 | 0.0 | 0.0 | 0.00 | 0.04 | 0.04 | 79 | 1012.6 |
| 20260510095310 | 66 | 90 | 0.0 | 0.0 | 0.00 | 0.04 | 0.04 | 79 | 1012.7 |
| 20260510094810 | 65 | 90 | 0.0 | 0.0 | 0.00 | 0.04 | 0.04 | 80 | 1012.7 |
| 20260510094310 | 65 | 92 | 0.0 | 0.0 | 0.00 | 0.04 | 0.04 | 80 | 1012.7 |
| 20260510093809 | 65 | 92 | 0.0 | 0.0 | 0.00 | 0.04 | 0.04 | 80 | 1012.7 |
| 20260510093309 | 65 | 92 | 0.0 | 0.0 | 0.00 | 0.04 | 0.04 | 81 | 1012.7 |
| 20260510092809 | 65 | 97 | 0.0 | 0.0 | 0.00 | 0.04 | 0.04 | 81 | 1012.7 |
| 20260510092308 | 65 | 98 | 0.0 | 0.0 | 0.00 | 0.04 | 0.04 | 81 | 1012.8 |
| 20260510091808 | 65 | 85 | 0.0 | 0.0 | 0.00 | 0.04 | 0.04 | 82 | 1012.8 |
| 20260510091308 | 64 | 81 | 0.0 | 0.0 | 0.00 | 0.04 | 0.04 | 83 | 1012.7 |
| 20260510090808 | 64 | 84 | 0.0 | 0.0 | 0.00 | 0.04 | 0.04 | 83 | 1012.7 |
| 20260510090307 | 64 | 77 | 0.0 | 0.0 | 0.00 | 0.04 | 0.04 | 84 | 1012.8 |
| 20260510085807 | 64 | 80 | 0.0 | 0.0 | 0.00 | 0.04 | 0.04 | 85 | 1012.8 |
| 20260510085307 | 63 | 80 | 0.0 | 0.0 | 0.00 | 0.04 | 0.04 | 85 | 1012.8 |
| 20260510084806 | 63 | 55 | 0.0 | 0.0 | 0.00 | 0.04 | 0.04 | 86 | 1012.8 |
| 20260510084306 | 63 | 60 | 0.0 | 0.0 | 0.00 | 0.04 | 0.04 | 86 | 1012.9 |
| 20260510083806 | 63 | 60 | 0.0 | 0.0 | 0.00 | 0.04 | 0.04 | 87 | 1012.9 |
| 20260510083306 | 63 | 56 | 0.0 | 0.0 | 0.00 | 0.04 | 0.04 | 86 | 1012.9 |
| 20260510082805 | 63 | 58 | 0.0 | 0.0 | 0.00 | 0.04 | 0.04 | 86 | 1013.0 |
| 20260510082307 | 63 | 61 | 0.0 | 0.0 | 0.00 | 0.04 | 0.04 | 86 | 1013.0 |
| 20260510081805 | 63 | 60 | 0.0 | 0.0 | 0.00 | 0.04 | 0.04 | 86 | 1013.1 |
| 20260510081305 | 63 | 60 | 0.0 | 0.0 | 0.00 | 0.04 | 0.04 | 86 | 1013.0 |
| 20260510080804 | 63 | 60 | 0.0 | 0.0 | 0.00 | 0.04 | 0.04 | 86 | 1013.0 |
| 20260510080304 | 62 | 57 | 0.0 | 0.0 | 0.00 | 0.04 | 0.04 | 86 | 1013.0 |
| 20260510075804 | 62 | 56 | 0.0 | 0.0 | 0.00 | 0.04 | 0.04 | 86 | 1012.9 |
| 20260510075306 | 62 | 64 | 0.0 | 0.0 | 0.00 | 0.04 | 0.04 | 86 | 1012.8 |
| 20260510074803 | 62 | 69 | 0.0 | 0.0 | 0.00 | 0.04 | 0.04 | 87 | 1012.8 |
| 20260510074303 | 62 | 205 | 0.0 | 0.0 | 0.00 | 0.04 | 0.04 | 87 | 1012.8 |
| 20260510073802 | 62 | 206 | 0.0 | 0.0 | 0.00 | 0.04 | 0.04 | 88 | 1012.7 |
| 20260510073302 | 62 | 207 | 0.0 | 0.0 | 0.00 | 0.04 | 0.04 | 87 | 1012.7 |
| 20260510072802 | 61 | 204 | 0.0 | 0.0 | 0.00 | 0.04 | 0.04 | 88 | 1012.6 |
| 20260510072305 | 61 | 205 | 0.0 | 0.0 | 0.00 | 0.04 | 0.04 | 89 | 1012.6 |
| 20260510071801 | 61 | 143 | 0.0 | 0.0 | 0.00 | 0.04 | 0.04 | 89 | 1012.6 |
| 20260510071301 | 61 | 142 | 0.0 | 0.0 | 0.00 | 0.04 | 0.04 | 89 | 1012.6 |
| 20260510070801 | 60 | 143 | 0.0 | 0.0 | 0.00 | 0.04 | 0.04 | 89 | 1012.6 |
| 20260510070300 | 60 | 143 | 0.0 | 0.0 | 0.00 | 0.04 | 0.04 | 89 | 1012.6 |
| 20260510065800 | 60 | 144 | 0.0 | 0.0 | 0.00 | 0.04 | 0.04 | 90 | 1012.6 |
| 20260510065300 | 60 | 141 | 0.0 | 0.0 | 0.00 | 0.04 | 0.04 | 90 | 1012.5 |
| 20260510064800 | 60 | 143 | 0.0 | 0.0 | 0.00 | 0.04 | 0.04 | 90 | 1012.6 |
| 20260510064259 | 60 | 139 | 0.0 | 0.0 | 0.00 | 0.04 | 0.04 | 90 | 1012.6 |
| 20260510063759 | 60 | 142 | 0.0 | 0.0 | 0.00 | 0.04 | 0.04 | 91 | 1012.6 |
| 20260510063259 | 59 | 141 | 0.0 | 0.0 | 0.00 | 0.04 | 0.04 | 90 | 1012.6 |
| 20260510062758 | 59 | 143 | 0.0 | 0.0 | 0.00 | 0.04 | 0.04 | 90 | 1012.7 |
| 20260510062258 | 59 | 359 | 0.0 | 0.0 | 0.00 | 0.04 | 0.04 | 90 | 1012.8 |
| 20260510061758 | 59 | 142 | 0.0 | 0.0 | 0.00 | 0.04 | 0.04 | 90 | 1012.8 |
| 20260510061258 | 59 | 141 | 0.0 | 0.0 | 0.00 | 0.04 | 0.04 | 91 | 1012.8 |
| 20260510060757 | 59 | 139 | 0.0 | 0.0 | 0.00 | 0.04 | 0.04 | 91 | 1012.8 |
| 20260510060257 | 59 | 139 | 0.0 | 0.0 | 0.00 | 0.04 | 0.04 | 90 | 1012.8 |
| 20260510055757 | 59 | 141 | 0.0 | 0.0 | 0.00 | 0.04 | 0.04 | 90 | 1012.7 |
| 20260510055256 | 58 | 359 | 0.0 | 0.0 | 0.00 | 0.04 | 0.04 | 90 | 1012.7 |
| 20260510054756 | 58 | 359 | 0.0 | 0.0 | 0.00 | 0.04 | 0.04 | 90 | 1012.7 |
| 20260510054256 | 58 | 141 | 0.0 | 0.0 | 0.00 | 0.04 | 0.04 | 90 | 1012.6 |
| 20260510053756 | 58 | 141 | 0.0 | 0.0 | 0.00 | 0.04 | 0.04 | 91 | 1012.6 |
| 20260510053255 | 58 | 141 | 0.0 | 0.0 | 0.00 | 0.04 | 0.04 | 90 | 1012.7 |
| 20260510052755 | 58 | 143 | 0.0 | 0.0 | 0.00 | 0.04 | 0.04 | 91 | 1012.8 |
| 20260510052255 | 58 | 143 | 0.0 | 0.0 | 0.00 | 0.04 | 0.04 | 90 | 1012.8 |
| 20260510051754 | 58 | 143 | 0.0 | 0.0 | 0.00 | 0.04 | 0.04 | 90 | 1012.8 |
| 20260510051254 | 58 | 141 | 0.0 | 0.0 | 0.00 | 0.04 | 0.04 | 90 | 1013.0 |
| 20260510050754 | 58 | 141 | 0.0 | 0.0 | 0.00 | 0.04 | 0.04 | 90 | 1013.0 |
| 20260510050254 | 58 | 142 | 0.0 | 0.0 | 0.00 | 0.04 | 0.04 | 90 | 1012.9 |
| 20260510045753 | 58 | 144 | 0.0 | 0.0 | 0.00 | 0.04 | 0.04 | 90 | 1012.9 |
| 20260510045253 | 58 | 145 | 0.0 | 0.0 | 0.00 | 0.04 | 0.04 | 90 | 1012.9 |
| 20260510044753 | 58 | 152 | 0.0 | 0.0 | 0.00 | 0.04 | 0.04 | 90 | 1012.8 |
| 20260510044252 | 58 | 149 | 0.0 | 0.0 | 0.00 | 0.04 | 0.04 | 90 | 1012.7 |
| 20260510043752 | 58 | 116 | 0.0 | 0.0 | 0.01 | 0.04 | 0.04 | 89 | 1012.5 |
| 20260510043404 | 58 | 114 | 0.0 | 0.0 | 0.02 | 0.04 | 0.04 | 89 | 1012.6 |
| 20260510043252 | 58 | 114 | 0.0 | 0.0 | 0.02 | 0.04 | 0.04 | 89 | 1012.6 |
| 20260510042752 | 58 | 116 | 0.0 | 0.0 | 0.04 | 0.04 | 0.04 | 88 | 1012.7 |
| 20260510042251 | 58 | 116 | 0.0 | 0.0 | 0.04 | 0.04 | 0.04 | 88 | 1012.8 |
| 20260510041836 | 59 | 112 | 0.0 | 0.0 | 0.04 | 0.04 | 0.04 | 88 | 1012.9 |
| 20260510041751 | 59 | 112 | 0.0 | 0.0 | 0.04 | 0.04 | 0.04 | 88 | 1012.9 |
| 20260510041251 | 59 | 114 | 0.0 | 0.0 | 0.04 | 0.04 | 0.04 | 87 | 1012.8 |
| 20260510040750 | 59 | 110 | 0.0 | 0.0 | 0.04 | 0.04 | 0.04 | 87 | 1012.8 |
| 20260510040250 | 59 | 112 | 0.0 | 0.0 | 0.04 | 0.04 | 0.04 | 87 | 1012.8 |
| 20260510035750 | 59 | 110 | 0.0 | 0.0 | 0.04 | 0.04 | 0.04 | 86 | 1012.8 |
| 20260510035249 | 59 | 111 | 0.0 | 0.0 | 0.04 | 0.04 | 0.04 | 85 | 1012.8 |
| 20260510034749 | 59 | 113 | 0.0 | 0.0 | 0.04 | 0.04 | 0.04 | 85 | 1012.9 |
| 20260510034249 | 60 | 113 | 0.0 | 0.0 | 0.04 | 0.04 | 0.04 | 84 | 1013.0 |
| 20260510033749 | 60 | 127 | 0.0 | 0.0 | 0.03 | 0.03 | 0.03 | 84 | 1013.1 |
| 20260510033248 | 60 | 127 | 0.0 | 0.0 | 0.02 | 0.02 | 0.02 | 83 | 1013.3 |
| 20260510032748 | 60 | 128 | 0.0 | 0.0 | 0.00 | 0.00 | 0.00 | 83 | 1013.3 |
| 20260510032248 | 59 | 128 | 0.0 | 0.0 | 0.00 | 0.00 | 0.00 | 83 | 1013.3 |
| 20260510031748 | 59 | 128 | 0.0 | 0.0 | 0.00 | 0.00 | 0.00 | 83 | 1013.3 |
| 20260510031247 | 59 | 129 | 0.0 | 0.0 | 0.00 | 0.00 | 0.00 | 83 | 1013.3 |
| 20260510030747 | 59 | 133 | 0.0 | 0.0 | 0.00 | 0.00 | 0.00 | 84 | 1013.7 |
| 20260510030247 | 59 | 133 | 0.0 | 0.0 | 0.00 | 0.00 | 0.00 | 83 | 1013.3 |
| 20260510025746 | 59 | 133 | 0.0 | 0.0 | 0.00 | 0.00 | 0.00 | 84 | 1013.2 |
| 20260510025246 | 58 | 130 | 0.0 | 0.0 | 0.00 | 0.00 | 0.00 | 84 | 1013.2 |
| 20260510024746 | 58 | 130 | 0.0 | 0.0 | 0.00 | 0.00 | 0.00 | 84 | 1013.2 |
| 20260510024245 | 59 | 130 | 0.0 | 0.0 | 0.00 | 0.00 | 0.00 | 84 | 1013.2 |
| 20260510023745 | 59 | 130 | 0.0 | 0.0 | 0.00 | 0.00 | 0.00 | 84 | 1013.3 |
| 20260510023245 | 59 | 130 | 0.0 | 0.0 | 0.00 | 0.00 | 0.00 | 84 | 1013.2 |
| 20260510022745 | 59 | 130 | 0.0 | 0.0 | 0.00 | 0.00 | 0.00 | 84 | 1013.2 |
| 20260510022244 | 58 | 130 | 0.0 | 0.0 | 0.00 | 0.00 | 0.00 | 85 | 1013.3 |
| 20260510021744 | 58 | 130 | 0.0 | 0.0 | 0.00 | 0.00 | 0.00 | 85 | 1013.3 |
| 20260510021244 | 58 | 130 | 0.0 | 0.0 | 0.00 | 0.00 | 0.00 | 85 | 1013.3 |
| 20260510020743 | 58 | 130 | 0.0 | 0.0 | 0.00 | 0.00 | 0.00 | 85 | 1013.4 |
| 20260510020243 | 58 | 130 | 0.0 | 0.0 | 0.00 | 0.00 | 0.00 | 85 | 1013.4 |
| 20260510015743 | 58 | 130 | 0.0 | 0.0 | 0.00 | 0.00 | 0.00 | 85 | 1013.4 |
| 20260510015243 | 58 | 130 | 0.0 | 0.0 | 0.00 | 0.00 | 0.00 | 85 | 1013.5 |
| 20260510014742 | 58 | 130 | 0.0 | 0.0 | 0.00 | 0.00 | 0.00 | 85 | 1013.5 |
| 20260510014242 | 57 | 130 | 0.0 | 0.0 | 0.00 | 0.00 | 0.00 | 85 | 1013.4 |
| 20260510013742 | 57 | 130 | 0.0 | 0.0 | 0.00 | 0.00 | 0.00 | 84 | 1013.4 |
| 20260510013241 | 57 | 130 | 0.0 | 0.0 | 0.00 | 0.00 | 0.00 | 84 | 1013.5 |
| 20260510012741 | 58 | 130 | 0.0 | 0.0 | 0.00 | 0.00 | 0.00 | 84 | 1013.5 |
| 20260510012241 | 58 | 130 | 0.0 | 0.0 | 0.00 | 0.00 | 0.00 | 84 | 1013.6 |
| 20260510011741 | 58 | 130 | 0.0 | 0.0 | 0.00 | 0.00 | 0.00 | 84 | 1013.7 |
| 20260510011240 | 58 | 130 | 0.0 | 0.0 | 0.00 | 0.00 | 0.00 | 83 | 1013.7 |
| 20260510010740 | 58 | 130 | 0.0 | 0.0 | 0.00 | 0.00 | 0.00 | 83 | 1013.8 |
| 20260510010240 | 58 | 130 | 0.0 | 0.0 | 0.00 | 0.00 | 0.00 | 83 | 1013.8 |
| 20260510005739 | 58 | 130 | 0.0 | 0.0 | 0.00 | 0.00 | 0.00 | 83 | 1014.0 |
| 20260510005239 | 58 | 130 | 0.0 | 0.0 | 0.00 | 0.00 | 0.00 | 83 | 1014.0 |
| 20260510004739 | 58 | 130 | 0.0 | 0.0 | 0.00 | 0.00 | 0.00 | 83 | 1014.0 |
| 20260510004239 | 58 | 130 | 0.0 | 0.0 | 0.00 | 0.00 | 0.00 | 83 | 1014.1 |
| 20260510003738 | 58 | 130 | 0.0 | 0.0 | 0.00 | 0.00 | 0.00 | 83 | 1014.2 |
| 20260510003238 | 58 | 130 | 0.0 | 0.0 | 0.00 | 0.00 | 0.00 | 83 | 1014.2 |
| 20260510002738 | 58 | 130 | 0.0 | 0.0 | 0.00 | 0.00 | 0.00 | 83 | 1014.2 |
| 20260510002237 | 58 | 130 | 0.0 | 0.0 | 0.00 | 0.00 | 0.00 | 83 | 1014.2 |
| 20260510001737 | 58 | 130 | 0.0 | 0.0 | 0.00 | 0.00 | 0.00 | 83 | 1014.2 |
| 20260510001237 | 58 | 130 | 0.0 | 0.0 | 0.00 | 0.00 | 0.00 | 82 | 1014.2 |
| 20260510000737 | 58 | 130 | 0.0 | 0.0 | 0.00 | 0.00 | 0.00 | 82 | 1014.2 |
| 20260510000236 | 58 | 130 | 0.0 | 0.0 | 0.00 | 0.00 | 0.00 | 82 | 1014.2 |
| 20260509235736 | 58 | 130 | 0.0 | 0.0 | 0.00 | 0.00 | 0.00 | 82 | 1014.2 |
| 20260509235236 | 59 | 130 | 0.0 | 0.0 | 0.00 | 0.00 | 0.00 | 82 | 1014.1 |
| 20260509234735 | 59 | 130 | 0.0 | 0.0 | 0.00 | 0.00 | 0.00 | 82 | 1014.2 |
| 20260509234235 | 59 | 130 | 0.0 | 0.0 | 0.00 | 0.00 | 0.00 | 82 | 1014.2 |
| 20260509233735 | 59 | 130 | 0.0 | 0.0 | 0.00 | 0.00 | 0.00 | 81 | 1014.2 |
| 20260509233235 | 59 | 130 | 0.0 | 0.0 | 0.00 | 0.00 | 0.00 | 81 | 1014.3 |
| 20260509232734 | 59 | 130 | 0.0 | 0.0 | 0.00 | 0.00 | 0.00 | 80 | 1014.2 |
| 20260509232234 | 59 | 130 | 0.0 | 0.0 | 0.00 | 0.00 | 0.00 | 80 | 1014.3 |
| 20260509231734 | 59 | 130 | 0.0 | 0.0 | 0.00 | 0.00 | 0.00 | 80 | 1014.3 |
| 20260509231233 | 59 | 130 | 0.0 | 0.0 | 0.00 | 0.00 | 0.00 | 80 | 1014.3 |
| 20260509230733 | 59 | 130 | 0.0 | 0.0 | 0.00 | 0.00 | 0.00 | 79 | 1014.4 |
| 20260509230233 | 60 | 130 | 0.0 | 0.0 | 0.00 | 0.00 | 0.00 | 79 | 1014.4 |
| 20260509225733 | 60 | 130 | 0.0 | 0.0 | 0.00 | 0.00 | 0.00 | 79 | 1014.4 |
| 20260509225232 | 60 | 130 | 0.0 | 0.0 | 0.00 | 0.00 | 0.00 | 79 | 1014.4 |
| 20260509224732 | 60 | 130 | 0.0 | 0.0 | 0.00 | 0.00 | 0.00 | 79 | 1014.4 |
| 20260509224232 | 60 | 130 | 0.0 | 0.0 | 0.00 | 0.00 | 0.00 | 78 | 1014.4 |
| 20260509223731 | 60 | 130 | 0.0 | 0.0 | 0.00 | 0.00 | 0.00 | 78 | 1014.4 |
| 20260509223231 | 60 | 130 | 0.0 | 0.0 | 0.00 | 0.00 | 0.00 | 78 | 1014.4 |
| 20260509222731 | 61 | 130 | 0.0 | 0.0 | 0.00 | 0.00 | 0.00 | 77 | 1014.5 |
| 20260509222230 | 61 | 130 | 0.0 | 0.0 | 0.00 | 0.00 | 0.00 | 77 | 1014.5 |
| 20260509221730 | 61 | 130 | 0.0 | 0.0 | 0.00 | 0.00 | 0.00 | 77 | 1014.6 |
| 20260509221230 | 61 | 130 | 0.0 | 0.0 | 0.00 | 0.00 | 0.00 | 77 | 1014.5 |
| 20260509220730 | 61 | 130 | 0.0 | 0.0 | 0.00 | 0.00 | 0.00 | 76 | 1014.5 |
| 20260509220229 | 61 | 130 | 0.0 | 0.0 | 0.00 | 0.00 | 0.00 | 76 | 1014.4 |
| 20260509215729 | 61 | 130 | 0.0 | 0.0 | 0.00 | 0.00 | 0.00 | 76 | 1014.4 |
| 20260509215229 | 61 | 130 | 0.0 | 0.0 | 0.00 | 0.00 | 0.00 | 75 | 1014.4 |
| 20260509214728 | 62 | 130 | 0.0 | 0.0 | 0.00 | 0.00 | 0.00 | 75 | 1014.4 |
| 20260509214228 | 62 | 130 | 0.0 | 0.0 | 0.00 | 0.00 | 0.00 | 74 | 1014.4 |
| 20260509213728 | 62 | 130 | 0.0 | 0.0 | 0.00 | 0.00 | 0.00 | 74 | 1014.4 |
| 20260509213228 | 62 | 130 | 0.0 | 0.0 | 0.00 | 0.00 | 0.00 | 74 | 1014.4 |
| 20260509212727 | 62 | 130 | 0.0 | 0.0 | 0.00 | 0.00 | 0.00 | 73 | 1014.4 |
| 20260509212227 | 62 | 130 | 0.0 | 0.0 | 0.00 | 0.00 | 0.00 | 72 | 1014.4 |
| 20260509211812 | 63 | 130 | 0.0 | 0.0 | 0.00 | 0.00 | 0.00 | 72 | 1014.5 |
| 20260509211727 | 63 | 130 | 0.0 | 0.0 | 0.00 | 0.00 | 0.00 | 72 | 1014.5 |
| 20260509211227 | 63 | 130 | 0.0 | 0.0 | 0.00 | 0.00 | 0.00 | 72 | 1014.5 |
| 20260509210726 | 63 | 130 | 0.0 | 0.0 | 0.00 | 0.00 | 0.00 | 71 | 1014.4 |
| 20260509210226 | 63 | 130 | 0.0 | 0.0 | 0.00 | 0.00 | 0.00 | 71 | 1014.5 |
| 20260509205726 | 64 | 130 | 0.0 | 0.0 | 0.00 | 0.00 | 0.00 | 70 | 1014.5 |